createdAt,value
2023-08-22T00:00:27.468Z,100671.09
2023-08-22T00:02:54.703Z,100670.25
2023-08-22T00:05:22.283Z,100670.19
2023-08-22T00:07:49.416Z,100672.63
2023-08-22T00:10:16.635Z,100664.97
2023-08-22T00:12:43.789Z,100666.63
2023-08-22T00:15:11.723Z,100662.63
2023-08-22T00:17:42.203Z,100665.38
2023-08-22T00:20:11.904Z,100657.63
2023-08-22T00:22:39.259Z,100663.09
2023-08-22T00:25:07.590Z,100661.94
2023-08-22T00:27:35.164Z,100658.34
2023-08-22T00:30:02.548Z,100659.16
2023-08-22T00:32:31.007Z,100658.81
2023-08-22T00:35:01.276Z,100661.56
2023-08-22T00:37:28.415Z,100660.22
2023-08-22T00:39:56.034Z,100665.97
2023-08-22T00:42:23.170Z,100664.81
2023-08-22T00:44:50.264Z,100659.72
2023-08-22T00:47:20.044Z,100662.41
2023-08-22T00:49:47.312Z,100654.59
2023-08-22T00:52:16.989Z,100663.16
2023-08-22T00:54:44.924Z,100654.19
2023-08-22T00:57:12.143Z,100652.84
2023-08-22T00:59:39.608Z,100658.16
2023-08-22T01:02:06.715Z,100652.00
2023-08-22T01:04:34.008Z,100650.56
2023-08-22T01:07:10.733Z,100646.72
2023-08-22T01:09:46.277Z,100650.66
2023-08-22T01:12:30.877Z,100654.13
2023-08-22T01:15:05.575Z,100654.41
2023-08-22T01:17:34.223Z,100658.25
2023-08-22T01:20:01.592Z,100652.44
2023-08-22T01:22:31.211Z,100657.38
2023-08-22T01:24:58.255Z,100657.16
2023-08-22T01:27:32.777Z,100655.69
2023-08-22T01:30:10.260Z,100650.94
2023-08-22T01:32:44.947Z,100653.09
2023-08-22T01:35:15.519Z,100656.47
2023-08-22T01:37:46.419Z,100647.56
2023-08-22T01:40:15.460Z,100644.78
2023-08-22T01:42:43.114Z,100654.66
2023-08-22T01:45:10.657Z,100648.63
2023-08-22T01:47:37.737Z,100647.84
2023-08-22T01:50:05.723Z,100647.06
2023-08-22T01:52:32.811Z,100639.25
2023-08-22T01:55:02.481Z,100644.44
2023-08-22T01:57:29.501Z,100640.63
2023-08-22T01:59:56.596Z,100640.88
2023-08-22T02:02:23.667Z,100642.88
2023-08-22T02:04:50.789Z,100636.53
2023-08-22T02:07:17.848Z,100636.53
2023-08-22T02:09:44.864Z,100637.63
2023-08-22T02:12:14.553Z,100640.25
2023-08-22T02:14:41.658Z,100641.69
2023-08-22T02:17:08.665Z,100642.75
2023-08-22T02:19:35.821Z,100644.66
2023-08-22T02:22:04.898Z,100646.31
2023-08-22T02:24:32.952Z,100653.38
2023-08-22T02:27:00.012Z,100643.88
2023-08-22T02:29:29.657Z,100649.53
2023-08-22T02:31:56.783Z,100648.31
2023-08-22T02:34:24.135Z,100645.41
2023-08-22T02:36:51.127Z,100640.56
2023-08-22T02:39:18.454Z,100640.88
2023-08-22T02:41:45.504Z,100636.13
2023-08-22T02:44:12.659Z,100634.50
2023-08-22T02:46:42.312Z,100633.22
2023-08-22T02:49:09.397Z,100628.19
2023-08-22T02:51:36.464Z,100625.44
2023-08-22T02:54:03.609Z,100624.94
2023-08-22T02:56:30.620Z,100624.28
2023-08-22T02:58:57.664Z,100619.84
2023-08-22T03:01:24.803Z,100625.09
2023-08-22T03:03:54.428Z,100627.25
2023-08-22T03:06:21.582Z,100632.00
2023-08-22T03:08:48.707Z,100639.78
2023-08-22T03:11:16.021Z,100639.66
2023-08-22T03:13:43.079Z,100643.84
2023-08-22T03:16:10.073Z,100648.56
2023-08-22T03:18:37.130Z,100639.84
2023-08-22T03:21:08.756Z,100640.38
2023-08-22T03:23:35.814Z,100646.72
2023-08-22T03:26:03.585Z,100645.13
2023-08-22T03:28:30.853Z,100642.72
2023-08-22T03:30:59.490Z,100642.38
2023-08-22T03:33:26.997Z,100639.97
2023-08-22T03:35:56.988Z,100637.94
2023-08-22T03:38:27.177Z,100644.94
2023-08-22T03:40:56.859Z,100644.59
2023-08-22T03:43:24.516Z,100654.75
2023-08-22T03:45:51.726Z,100655.63
2023-08-22T03:48:18.788Z,100647.84
2023-08-22T03:50:45.826Z,100647.94
2023-08-22T03:53:13.610Z,100643.41
2023-08-22T03:55:45.400Z,100645.63
2023-08-22T03:58:12.512Z,100642.50
2023-08-22T04:00:39.670Z,100647.41
2023-08-22T04:03:07.191Z,100642.41
2023-08-22T04:05:34.227Z,100645.41
2023-08-22T04:08:01.256Z,100645.75
2023-08-22T04:10:28.362Z,100644.09
2023-08-22T04:12:57.999Z,100652.28
2023-08-22T04:15:24.983Z,100650.28
2023-08-22T04:17:52.067Z,100644.25
2023-08-22T04:20:19.177Z,100648.00
2023-08-22T04:22:46.178Z,100651.13
2023-08-22T04:25:13.251Z,100644.59
2023-08-22T04:27:40.941Z,100650.09
2023-08-22T04:30:12.161Z,100642.25
2023-08-22T04:32:39.329Z,100644.66
2023-08-22T04:35:07.185Z,100654.13
2023-08-22T04:37:34.228Z,100654.13
2023-08-22T04:40:01.244Z,100663.78
2023-08-22T04:42:28.270Z,100662.16
2023-08-22T04:44:55.323Z,100663.72
2023-08-22T04:47:25.030Z,100666.13
2023-08-22T04:49:52.082Z,100664.56
2023-08-22T04:52:19.237Z,100666.00
2023-08-22T04:54:46.285Z,100667.81
2023-08-22T04:57:13.357Z,100669.19
2023-08-22T04:59:40.433Z,100672.63
2023-08-22T05:02:07.876Z,100668.72
2023-08-22T05:04:37.636Z,100674.16
2023-08-22T05:07:04.712Z,100671.69
2023-08-22T05:09:31.764Z,100673.47
2023-08-22T05:11:58.829Z,100677.06
2023-08-22T05:14:25.915Z,100672.25
2023-08-22T05:16:53.037Z,100674.81
2023-08-22T05:19:20.125Z,100664.94
2023-08-22T05:21:49.803Z,100670.97
2023-08-22T05:24:16.897Z,100673.31
2023-08-22T05:26:44.050Z,100663.97
2023-08-22T05:29:11.458Z,100669.31
2023-08-22T05:31:38.553Z,100672.13
2023-08-22T05:34:05.637Z,100673.34
2023-08-22T05:36:32.713Z,100672.84
2023-08-22T05:39:02.351Z,100675.59
2023-08-22T05:41:29.368Z,100675.00
2023-08-22T05:43:56.538Z,100680.53
2023-08-22T05:46:23.693Z,100684.13
2023-08-22T05:48:50.801Z,100680.53
2023-08-22T05:51:17.867Z,100684.00
2023-08-22T05:53:44.941Z,100690.66
2023-08-22T05:56:14.635Z,100695.69
2023-08-22T05:58:41.715Z,100689.06
2023-08-22T06:01:09.093Z,100692.63
2023-08-22T06:03:36.220Z,100690.66
2023-08-22T06:06:03.279Z,100697.44
2023-08-22T06:08:30.478Z,100701.63
2023-08-22T06:10:57.843Z,100697.75
2023-08-22T06:13:27.510Z,100691.75
2023-08-22T06:15:56.500Z,100697.34
2023-08-22T06:18:23.721Z,100695.75
2023-08-22T06:20:50.819Z,100705.28
2023-08-22T06:23:17.919Z,100700.44
2023-08-22T06:25:47.811Z,100702.38
2023-08-22T06:28:14.895Z,100699.78
2023-08-22T06:30:45.178Z,100702.78
2023-08-22T06:33:12.286Z,100715.63
2023-08-22T06:35:39.344Z,100707.78
2023-08-22T06:38:06.365Z,100717.97
2023-08-22T06:40:36.041Z,100719.63
2023-08-22T06:43:03.178Z,100720.97
2023-08-22T06:45:30.473Z,100726.00
2023-08-22T06:48:00.401Z,100720.16
2023-08-22T06:50:27.566Z,100729.69
2023-08-22T06:52:54.670Z,100723.84
2023-08-22T06:55:21.715Z,100724.09
2023-08-22T06:57:49.007Z,100723.00
2023-08-22T07:00:17.479Z,100718.09
2023-08-22T07:02:46.337Z,100724.34
2023-08-22T07:05:16.886Z,100718.47
2023-08-22T07:07:44.298Z,100726.16
2023-08-22T07:10:14.276Z,100722.78
2023-08-22T07:12:42.687Z,100730.88
2023-08-22T07:15:10.575Z,100734.97
2023-08-22T07:17:37.637Z,100730.63
2023-08-22T07:20:06.225Z,100736.63
2023-08-22T07:22:36.584Z,100733.13
2023-08-22T07:25:03.992Z,100732.31
2023-08-22T07:27:31.045Z,100734.31
2023-08-22T07:29:58.037Z,100733.09
2023-08-22T07:32:25.056Z,100735.16
2023-08-22T07:34:52.123Z,100732.59
2023-08-22T07:37:19.142Z,100728.66
2023-08-22T07:39:48.942Z,100727.81
2023-08-22T07:42:16.064Z,100736.31
2023-08-22T07:44:43.179Z,100736.34
2023-08-22T07:47:10.337Z,100730.53
2023-08-22T07:49:37.338Z,100732.84
2023-08-22T07:52:04.972Z,100733.63
2023-08-22T07:54:32.018Z,100739.16
2023-08-22T07:57:16.572Z,100735.81
2023-08-22T07:59:45.832Z,100731.50
2023-08-22T08:02:13.077Z,100732.88
2023-08-22T08:04:40.279Z,100744.22
2023-08-22T08:07:07.423Z,100736.56
2023-08-22T08:09:36.149Z,100731.94
2023-08-22T08:12:07.385Z,100741.59
2023-08-22T08:14:34.604Z,100737.84
2023-08-22T08:17:01.757Z,100741.06
2023-08-22T08:19:28.783Z,100733.50
2023-08-22T08:21:55.860Z,100736.75
2023-08-22T08:24:22.958Z,100739.16
2023-08-22T08:26:50.015Z,100727.28
2023-08-22T08:29:19.673Z,100730.06
2023-08-22T08:31:46.757Z,100734.31
2023-08-22T08:34:13.761Z,100731.34
2023-08-22T08:36:40.811Z,100736.00
2023-08-22T08:39:07.830Z,100726.63
2023-08-22T08:41:38.874Z,100731.09
2023-08-22T08:44:08.990Z,100731.78
2023-08-22T08:46:39.438Z,100730.44
2023-08-22T08:49:07.334Z,100733.50
2023-08-22T08:51:35.523Z,100727.91
2023-08-22T08:54:04.399Z,100732.97
2023-08-22T08:56:31.596Z,100727.81
2023-08-22T08:58:58.692Z,100730.59
2023-08-22T09:01:27.904Z,100737.28
2023-08-22T09:03:57.601Z,100725.44
2023-08-22T09:06:25.666Z,100726.81
2023-08-22T09:09:06.903Z,100733.28
2023-08-22T09:11:34.212Z,100728.81
2023-08-22T09:14:01.348Z,100729.09
2023-08-22T09:16:29.558Z,100732.16
2023-08-22T09:19:01.627Z,100733.31
2023-08-22T09:21:29.185Z,100733.09
2023-08-22T09:24:06.557Z,100724.22
2023-08-22T09:26:33.634Z,100735.59
2023-08-22T09:29:04.854Z,100745.41
2023-08-22T09:31:31.952Z,100725.94
2023-08-22T09:34:07.589Z,100725.72
2023-08-22T09:36:34.652Z,100727.47
2023-08-22T09:39:01.773Z,100722.97
2023-08-22T09:41:36.267Z,100726.28
2023-08-22T09:44:07.252Z,100727.41
2023-08-22T09:46:39.354Z,100722.47
2023-08-22T09:49:15.074Z,100723.03
2023-08-22T09:51:44.092Z,100716.06
2023-08-22T09:54:11.555Z,100720.53
2023-08-22T09:56:39.357Z,100720.50
2023-08-22T09:59:06.952Z,100708.28
2023-08-22T10:01:38.572Z,100707.19
2023-08-22T10:04:08.663Z,100713.84
2023-08-22T10:06:46.385Z,100701.91
2023-08-22T10:09:15.238Z,100711.84
2023-08-22T10:11:48.462Z,100705.09
2023-08-22T10:14:24.136Z,100699.00
2023-08-22T10:16:51.434Z,100700.28
2023-08-22T10:19:24.983Z,100703.34
2023-08-22T10:22:06.280Z,100698.91
2023-08-22T10:24:39.144Z,100704.81
2023-08-22T10:27:12.390Z,100692.50
2023-08-22T10:29:43.289Z,100695.22
2023-08-22T10:32:24.561Z,100691.59
2023-08-22T10:35:21.608Z,100695.22
2023-08-22T10:37:50.492Z,100693.50
2023-08-22T10:40:34.012Z,100685.06
2023-08-22T10:43:12.549Z,100687.28
2023-08-22T10:45:50.088Z,100680.09
2023-08-22T10:48:19.342Z,100686.16
2023-08-22T10:50:51.445Z,100688.63
2023-08-22T10:53:22.663Z,100686.56
2023-08-22T10:55:50.156Z,100679.47
2023-08-22T10:58:39.024Z,100680.56
2023-08-22T11:01:07.091Z,100670.59
2023-08-22T11:03:34.395Z,100672.53
2023-08-22T11:06:11.774Z,100678.22
2023-08-22T11:08:39.008Z,100682.81
2023-08-22T11:11:06.765Z,100672.75
2023-08-22T11:13:38.377Z,100668.31
2023-08-22T11:16:09.851Z,100673.84
2023-08-22T11:18:37.124Z,100674.59
2023-08-22T11:21:07.307Z,100666.13
2023-08-22T11:23:35.729Z,100681.03
2023-08-22T11:26:05.900Z,100674.53
2023-08-22T11:28:36.649Z,100675.19
2023-08-22T11:31:05.361Z,100665.03
2023-08-22T11:33:51.943Z,100668.00
2023-08-22T11:36:24.714Z,100663.25
2023-08-22T11:38:54.869Z,100668.88
2023-08-22T11:41:22.107Z,100663.75
2023-08-22T11:43:52.567Z,100663.19
2023-08-22T11:46:21.257Z,100648.78
2023-08-22T11:48:50.789Z,100652.03
2023-08-22T11:51:22.001Z,100642.66
2023-08-22T11:53:49.753Z,100643.56
2023-08-22T11:56:16.878Z,100643.69
2023-08-22T11:58:49.942Z,100641.50
2023-08-22T12:01:18.492Z,100638.59
2023-08-22T12:03:46.109Z,100638.19
2023-08-22T12:06:16.695Z,100641.63
2023-08-22T12:08:55.760Z,100633.75
2023-08-22T12:11:25.064Z,100621.78
2023-08-22T12:13:52.130Z,100633.75
2023-08-22T12:16:19.325Z,100632.03
2023-08-22T12:18:46.507Z,100634.50
2023-08-22T12:21:13.608Z,100628.53
2023-08-22T12:23:42.142Z,100620.59
2023-08-22T12:26:11.902Z,100627.72
2023-08-22T12:28:38.977Z,100621.66
2023-08-22T12:31:06.120Z,100624.13
2023-08-22T12:33:33.385Z,100623.50
2023-08-22T12:36:00.598Z,100612.53
2023-08-22T12:38:27.640Z,100622.31
2023-08-22T12:40:57.617Z,100603.44
2023-08-22T12:43:27.368Z,100606.94
2023-08-22T12:45:54.627Z,100603.94
2023-08-22T12:48:21.832Z,100598.56
2023-08-22T12:50:48.966Z,100605.03
2023-08-22T12:53:16.112Z,100589.06
2023-08-22T12:55:43.394Z,100594.56
2023-08-22T12:58:10.645Z,100591.28
2023-08-22T13:00:40.425Z,100594.38
2023-08-22T13:03:07.734Z,100587.56
2023-08-22T13:05:35.042Z,100596.81
2023-08-22T13:08:02.111Z,100587.06
2023-08-22T13:10:29.317Z,100584.31
2023-08-22T13:12:56.384Z,100581.63
2023-08-22T13:15:23.627Z,100572.59
2023-08-22T13:17:53.598Z,100568.13
2023-08-22T13:20:20.793Z,100571.44
2023-08-22T13:22:47.847Z,100563.50
2023-08-22T13:25:18.009Z,100563.81
2023-08-22T13:27:45.436Z,100569.56
2023-08-22T13:30:13.263Z,100564.69
2023-08-22T13:32:40.352Z,100576.84
2023-08-22T13:35:10.228Z,100561.38
2023-08-22T13:37:37.400Z,100569.50
2023-08-22T13:40:05.571Z,100565.41
2023-08-22T13:42:32.691Z,100558.88
2023-08-22T13:44:59.839Z,100551.44
2023-08-22T13:47:26.906Z,100566.16
2023-08-22T13:49:54.104Z,100556.31
2023-08-22T13:52:23.857Z,100557.84
2023-08-22T13:54:51.027Z,100547.50
2023-08-22T13:57:18.220Z,100555.88
2023-08-22T13:59:47.776Z,100546.00
2023-08-22T14:02:14.883Z,100551.00
2023-08-22T14:04:41.962Z,100555.25
2023-08-22T14:07:08.962Z,100548.25
2023-08-22T14:09:38.689Z,100548.84
2023-08-22T14:12:06.506Z,100547.97
2023-08-22T14:14:33.551Z,100548.69
2023-08-22T14:17:00.717Z,100551.31
2023-08-22T14:19:27.785Z,100558.94
2023-08-22T14:21:56.345Z,100543.53
2023-08-22T14:24:23.611Z,100552.66
2023-08-22T14:26:53.233Z,100551.16
2023-08-22T14:29:20.293Z,100541.41
2023-08-22T14:31:47.417Z,100544.72
2023-08-22T14:34:14.518Z,100541.41
2023-08-22T14:36:41.592Z,100537.00
2023-08-22T14:39:08.629Z,100540.16
2023-08-22T14:41:35.670Z,100538.47
2023-08-22T14:44:05.459Z,100536.59
2023-08-22T14:46:32.559Z,100535.13
2023-08-22T14:48:59.667Z,100522.75
2023-08-22T14:51:26.829Z,100521.44
2023-08-22T14:53:54.048Z,100511.81
2023-08-22T14:56:21.101Z,100521.28
2023-08-22T14:58:49.174Z,100525.06
2023-08-22T15:01:18.956Z,100516.75
2023-08-22T15:03:46.313Z,100523.09
2023-08-22T15:06:13.426Z,100520.06
2023-08-22T15:08:40.531Z,100517.00
2023-08-22T15:11:07.961Z,100520.59
2023-08-22T15:13:35.021Z,100511.47
2023-08-22T15:16:02.195Z,100512.25
2023-08-22T15:18:32.083Z,100513.31
2023-08-22T15:20:59.762Z,100505.31
2023-08-22T15:23:27.608Z,100521.78
2023-08-22T15:25:56.409Z,100523.91
2023-08-22T15:28:25.897Z,100511.31
2023-08-22T15:30:56.670Z,100516.06
2023-08-22T15:33:23.836Z,100513.81
2023-08-22T15:35:53.543Z,100507.19
2023-08-22T15:38:20.669Z,100506.41
2023-08-22T15:40:49.264Z,100506.81
2023-08-22T15:43:17.330Z,100500.72
2023-08-22T15:45:44.726Z,100507.41
2023-08-22T15:48:11.885Z,100502.88
2023-08-22T15:50:39.125Z,100510.22
2023-08-22T15:53:09.091Z,100502.56
2023-08-22T15:55:36.220Z,100502.84
2023-08-22T15:58:03.499Z,100512.28
2023-08-22T16:00:30.652Z,100500.59
2023-08-22T16:02:59.440Z,100490.66
2023-08-22T16:05:26.896Z,100491.91
2023-08-22T16:07:53.983Z,100496.44
2023-08-22T16:10:23.715Z,100491.56
2023-08-22T16:12:50.763Z,100486.28
2023-08-22T16:15:18.005Z,100484.63
2023-08-22T16:17:45.732Z,100492.81
2023-08-22T16:20:13.554Z,100488.25
2023-08-22T16:22:40.656Z,100490.41
2023-08-22T16:25:08.651Z,100479.81
2023-08-22T16:27:38.294Z,100485.56
2023-08-22T16:30:07.418Z,100479.47
2023-08-22T16:32:34.635Z,100476.13
2023-08-22T16:35:01.720Z,100485.69
2023-08-22T16:37:28.778Z,100480.94
2023-08-22T16:39:55.854Z,100474.63
2023-08-22T16:42:22.986Z,100476.63
2023-08-22T16:44:52.805Z,100479.59
2023-08-22T16:47:19.864Z,100476.00
2023-08-22T16:49:47.012Z,100479.19
2023-08-22T16:52:14.165Z,100476.63
2023-08-22T16:54:41.303Z,100479.66
2023-08-22T16:57:08.301Z,100478.88
2023-08-22T16:59:36.278Z,100477.81
2023-08-22T17:02:06.832Z,100469.19
2023-08-22T17:04:33.897Z,100474.38
2023-08-22T17:07:02.130Z,100476.94
2023-08-22T17:09:31.318Z,100478.34
2023-08-22T17:11:58.329Z,100476.75
2023-08-22T17:14:25.408Z,100472.38
2023-08-22T17:16:52.442Z,100482.47
2023-08-22T17:19:22.151Z,100493.19
2023-08-22T17:21:49.165Z,100488.53
2023-08-22T17:24:16.246Z,100490.69
2023-08-22T17:26:43.256Z,100494.53
2023-08-22T17:29:10.283Z,100500.63
2023-08-22T17:31:37.422Z,100507.03
2023-08-22T17:34:04.507Z,100493.06
2023-08-22T17:36:34.186Z,100500.53
2023-08-22T17:39:01.248Z,100505.56
2023-08-22T17:41:28.299Z,100501.94
2023-08-22T17:43:55.423Z,100497.47
2023-08-22T17:46:22.509Z,100497.84
2023-08-22T17:48:49.537Z,100501.72
2023-08-22T17:51:16.765Z,100501.66
2023-08-22T17:53:46.430Z,100506.22
2023-08-22T17:56:13.438Z,100502.50
2023-08-22T17:58:40.544Z,100496.72
2023-08-22T18:01:07.581Z,100503.72
2023-08-22T18:03:34.832Z,100506.00
2023-08-22T18:06:02.610Z,100503.53
2023-08-22T18:08:30.380Z,100514.91
2023-08-22T18:11:00.263Z,100506.31
2023-08-22T18:13:27.404Z,100505.59
2023-08-22T18:16:08.043Z,100501.03
2023-08-22T18:18:36.871Z,100500.56
2023-08-22T18:21:04.936Z,100504.38
2023-08-22T18:23:32.578Z,100509.16
2023-08-22T18:26:03.645Z,100509.59
2023-08-22T18:28:32.627Z,100509.25
2023-08-22T18:31:02.523Z,100505.00
2023-08-22T18:33:30.394Z,100509.19
2023-08-22T18:35:57.614Z,100513.19
2023-08-22T18:38:25.317Z,100523.22
2023-08-22T18:40:53.361Z,100520.91
2023-08-22T18:43:23.021Z,100522.94
2023-08-22T18:45:50.228Z,100529.22
2023-08-22T18:48:17.325Z,100533.28
2023-08-22T18:50:45.677Z,100541.81
2023-08-22T18:53:14.671Z,100541.34
2023-08-22T18:55:41.964Z,100536.31
2023-08-22T18:58:09.075Z,100538.63
2023-08-22T19:00:40.276Z,100539.72
2023-08-22T19:03:07.392Z,100544.22
2023-08-22T19:05:34.579Z,100545.28
2023-08-22T19:08:01.735Z,100550.50
2023-08-22T19:10:28.979Z,100550.25
2023-08-22T19:12:56.063Z,100551.63
2023-08-22T19:15:23.359Z,100547.47
2023-08-22T19:17:53.146Z,100551.94
2023-08-22T19:20:20.283Z,100551.75
2023-08-22T19:22:47.311Z,100563.44
2023-08-22T19:25:14.512Z,100564.44
2023-08-22T19:27:41.578Z,100560.84
2023-08-22T19:30:10.007Z,100565.16
2023-08-22T19:33:02.214Z,100560.72
2023-08-22T19:35:29.842Z,100565.72
2023-08-22T19:37:57.204Z,100566.06
2023-08-22T19:40:24.308Z,100569.47
2023-08-22T19:42:51.335Z,100570.94
2023-08-22T19:45:18.792Z,100566.44
2023-08-22T19:47:46.178Z,100564.28
2023-08-22T19:50:13.515Z,100569.13
2023-08-22T19:52:43.246Z,100572.69
2023-08-22T19:55:11.443Z,100571.59
2023-08-22T19:57:40.117Z,100563.03
2023-08-22T20:00:09.989Z,100570.06
2023-08-22T20:02:39.170Z,100571.44
2023-08-22T20:05:07.143Z,100573.38
2023-08-22T20:07:34.324Z,100576.69
2023-08-22T20:10:05.980Z,100581.34
2023-08-22T20:12:33.853Z,100585.75
2023-08-22T20:15:01.059Z,100577.66
2023-08-22T20:17:28.275Z,100588.31
2023-08-22T20:19:55.381Z,100589.13
2023-08-22T20:22:22.553Z,100590.19
2023-08-22T20:24:49.963Z,100589.63
2023-08-22T20:27:19.699Z,100589.78
2023-08-22T20:29:46.900Z,100598.16
2023-08-22T20:32:13.945Z,100598.97
2023-08-22T20:34:40.983Z,100597.41
2023-08-22T20:37:08.197Z,100597.66
2023-08-22T20:39:35.278Z,100603.72
2023-08-22T20:42:02.527Z,100602.38
2023-08-22T20:44:32.299Z,100602.19
2023-08-22T20:46:59.392Z,100598.47
2023-08-22T20:49:26.805Z,100603.50
2023-08-22T20:51:53.994Z,100607.94
2023-08-22T20:54:21.114Z,100610.22
2023-08-22T20:56:48.160Z,100608.31
2023-08-22T20:59:15.202Z,100617.44
2023-08-22T21:01:44.934Z,100609.94
2023-08-22T21:04:12.285Z,100609.44
2023-08-22T21:06:39.421Z,100614.19
2023-08-22T21:09:06.585Z,100608.91
2023-08-22T21:11:33.748Z,100613.06
2023-08-22T21:14:00.770Z,100613.59
2023-08-22T21:16:27.875Z,100616.38
2023-08-22T21:18:57.536Z,100620.84
2023-08-22T21:21:24.627Z,100625.81
2023-08-22T21:23:51.666Z,100626.91
2023-08-22T21:26:18.818Z,100615.56
2023-08-22T21:28:47.472Z,100619.16
2023-08-22T21:31:14.703Z,100622.47
2023-08-22T21:33:41.940Z,100614.69
2023-08-22T21:36:13.474Z,100627.19
2023-08-22T21:38:43.534Z,100619.13
2023-08-22T21:41:10.642Z,100622.19
2023-08-22T21:43:37.855Z,100625.53
2023-08-22T21:46:07.273Z,100616.63
2023-08-22T21:48:34.380Z,100628.81
2023-08-22T21:51:01.451Z,100631.88
2023-08-22T21:53:31.211Z,100635.47
2023-08-22T21:55:58.252Z,100634.56
2023-08-22T21:58:25.291Z,100629.25
2023-08-22T22:01:08.353Z,100635.66
2023-08-22T22:03:36.057Z,100638.38
2023-08-22T22:06:03.336Z,100638.38
2023-08-22T22:08:33.055Z,100641.69
2023-08-22T22:11:00.210Z,100637.72
2023-08-22T22:13:27.900Z,100642.72
2023-08-22T22:15:55.016Z,100638.81
2023-08-22T22:18:23.803Z,100644.06
2023-08-22T22:20:54.616Z,100646.03
2023-08-22T22:23:21.711Z,100639.38
2023-08-22T22:25:58.841Z,100647.59
2023-08-22T22:28:26.109Z,100642.63
2023-08-22T22:30:53.185Z,100647.59
2023-08-22T22:33:21.038Z,100640.38
2023-08-22T22:35:48.143Z,100641.44
2023-08-22T22:38:15.200Z,100639.75
2023-08-22T22:40:42.228Z,100641.09
2023-08-22T22:43:11.866Z,100648.00
2023-08-22T22:45:39.891Z,100648.31
2023-08-22T22:48:07.708Z,100648.25
2023-08-22T22:50:34.895Z,100654.53
2023-08-22T22:53:01.969Z,100656.09
2023-08-22T22:55:28.997Z,100654.50
2023-08-22T22:57:56.140Z,100653.44
2023-08-22T23:00:26.388Z,100654.72
2023-08-22T23:02:56.212Z,100651.16
2023-08-22T23:05:24.327Z,100653.81
2023-08-22T23:07:51.791Z,100653.19
2023-08-22T23:10:19.367Z,100650.56
2023-08-22T23:12:47.948Z,100656.44
2023-08-22T23:15:15.221Z,100660.16
2023-08-22T23:17:45.423Z,100649.56
2023-08-22T23:20:14.845Z,100645.41
2023-08-22T23:22:44.321Z,100651.25
2023-08-22T23:25:12.700Z,100648.19
2023-08-22T23:27:40.465Z,100656.16
2023-08-22T23:30:10.294Z,100659.88
2023-08-22T23:32:37.858Z,100653.25
2023-08-22T23:35:08.682Z,100653.34
2023-08-22T23:37:36.894Z,100655.38
2023-08-22T23:40:21.122Z,100657.41
2023-08-22T23:42:48.564Z,100655.75
2023-08-22T23:45:15.613Z,100643.44
2023-08-22T23:47:42.786Z,100639.00
2023-08-22T23:50:12.582Z,100637.59
2023-08-22T23:52:40.025Z,100631.22
2023-08-22T23:55:10.216Z,100628.59
2023-08-22T23:57:38.233Z,100631.69
